createdAt,value
2019-03-09T00:01:19.931Z,51.08
2019-03-09T00:03:49.237Z,51.10
2019-03-09T00:06:19.484Z,51.32
2019-03-09T00:08:49.417Z,51.37
2019-03-09T00:11:19.368Z,51.57
2019-03-09T00:13:49.683Z,51.60
2019-03-09T00:16:20.167Z,51.95
2019-03-09T00:18:50.563Z,51.67
2019-03-09T00:21:20.042Z,52.25
2019-03-09T00:23:51.527Z,52.08
2019-03-09T00:26:23.657Z,52.28
2019-03-09T00:28:57.055Z,52.08
2019-03-09T00:31:30.862Z,52.31
2019-03-09T00:34:01.546Z,52.62
2019-03-09T00:36:31.323Z,52.09
2019-03-09T00:39:00.809Z,52.37
2019-03-09T00:41:31.567Z,51.98
2019-03-09T00:44:01.074Z,53.01
2019-03-09T00:46:31.349Z,52.42
2019-03-09T00:49:01.112Z,52.11
2019-03-09T00:51:31.282Z,52.70
2019-03-09T00:54:01.839Z,52.32
2019-03-09T00:56:31.545Z,52.08
2019-03-09T00:59:01.174Z,52.06
2019-03-09T01:01:30.862Z,51.24
2019-03-09T01:04:01.074Z,52.29
2019-03-09T01:06:30.899Z,51.87
2019-03-09T01:09:01.322Z,51.48
2019-03-09T01:11:31.451Z,52.17
2019-03-09T01:14:00.970Z,51.84
2019-03-09T01:16:30.527Z,52.73
2019-03-09T01:19:00.167Z,52.19
2019-03-09T01:21:29.457Z,52.04
2019-03-09T01:23:59.675Z,51.90
2019-03-09T01:26:30.199Z,51.90
2019-03-09T01:29:00.768Z,52.06
2019-03-09T01:31:31.161Z,52.27
2019-03-09T01:34:00.673Z,52.28
2019-03-09T01:36:30.792Z,52.56
2019-03-09T01:39:00.919Z,52.40
2019-03-09T01:41:30.760Z,52.07
2019-03-09T01:44:01.484Z,51.92
2019-03-09T01:46:32.110Z,51.77
2019-03-09T01:49:01.956Z,52.30
2019-03-09T01:51:31.930Z,52.28
2019-03-09T01:54:01.926Z,52.52
2019-03-09T01:56:32.009Z,52.62
2019-03-09T01:59:03.659Z,52.53
2019-03-09T02:01:34.505Z,53.20
2019-03-09T02:04:04.148Z,53.10
2019-03-09T02:06:33.872Z,53.32
2019-03-09T02:09:05.211Z,53.39
2019-03-09T02:11:34.619Z,53.61
2019-03-09T02:14:04.423Z,53.87
2019-03-09T02:16:34.366Z,53.22
2019-03-09T02:19:03.906Z,53.48
2019-03-09T02:21:33.922Z,53.69
2019-03-09T02:24:04.003Z,53.79
2019-03-09T02:26:33.939Z,53.54
2019-03-09T02:29:03.878Z,53.91
2019-03-09T02:31:34.116Z,53.79
2019-03-09T02:34:04.360Z,54.19
2019-03-09T02:36:34.502Z,54.30
2019-03-09T02:39:09.101Z,54.82
2019-03-09T02:41:39.002Z,54.60
2019-03-09T02:44:09.539Z,54.41
2019-03-09T02:46:40.866Z,54.62
2019-03-09T02:49:10.797Z,54.81
2019-03-09T02:51:41.069Z,55.14
2019-03-09T02:54:10.757Z,55.28
2019-03-09T02:56:40.995Z,55.38
2019-03-09T02:59:10.899Z,55.10
2019-03-09T03:01:42.587Z,55.20
2019-03-09T03:04:14.085Z,55.20
2019-03-09T03:06:44.223Z,55.29
2019-03-09T03:09:14.113Z,55.08
2019-03-09T03:11:44.410Z,55.09
2019-03-09T03:14:14.275Z,55.11
2019-03-09T03:16:45.921Z,55.26
2019-03-09T03:19:15.959Z,55.10
2019-03-09T03:21:45.629Z,55.33
2019-03-09T03:24:15.333Z,55.20
2019-03-09T03:26:45.173Z,55.38
2019-03-09T03:29:15.101Z,55.27
2019-03-09T03:31:45.003Z,55.71
2019-03-09T03:34:14.506Z,55.73
2019-03-09T03:36:43.874Z,55.70
2019-03-09T03:39:14.505Z,55.83
2019-03-09T03:41:45.687Z,56.27
2019-03-09T03:44:15.078Z,56.58
2019-03-09T03:46:45.273Z,57.25
2019-03-09T03:49:15.132Z,57.20
2019-03-09T03:51:46.636Z,57.14
2019-03-09T03:54:24.124Z,58.27
2019-03-09T03:56:54.065Z,58.63
2019-03-09T03:59:24.079Z,58.76
2019-03-09T04:01:55.586Z,60.10
2019-03-09T04:04:26.866Z,61.42
2019-03-09T04:06:56.784Z,62.03
2019-03-09T04:09:26.587Z,62.13
2019-03-09T04:11:56.607Z,61.72
2019-03-09T04:14:26.583Z,62.49
2019-03-09T04:16:56.458Z,64.35
2019-03-09T04:19:27.355Z,65.11
2019-03-09T04:21:57.694Z,64.78
2019-03-09T04:24:27.406Z,66.28
2019-03-09T04:26:57.237Z,65.50
2019-03-09T04:29:27.546Z,65.50
2019-03-09T04:31:57.683Z,64.86
2019-03-09T04:34:29.694Z,65.29
2019-03-09T04:37:02.247Z,65.17
2019-03-09T04:39:32.695Z,66.21
2019-03-09T04:42:03.076Z,66.28
2019-03-09T04:44:33.388Z,65.51
2019-03-09T04:47:02.881Z,65.12
2019-03-09T04:49:34.369Z,66.04
2019-03-09T04:52:04.716Z,66.22
2019-03-09T04:54:34.809Z,66.12
2019-03-09T04:57:05.183Z,66.38
2019-03-09T04:59:35.825Z,65.97
2019-03-09T05:02:06.004Z,66.28
2019-03-09T05:04:43.960Z,66.11
2019-03-09T05:07:16.386Z,65.98
2019-03-09T05:09:51.880Z,66.66
2019-03-09T05:12:21.615Z,66.56
2019-03-09T05:14:51.507Z,67.09
2019-03-09T05:17:21.728Z,66.50
2019-03-09T05:19:51.175Z,67.53
2019-03-09T05:22:21.393Z,67.00
2019-03-09T05:24:51.404Z,67.24
2019-03-09T05:27:21.681Z,66.92
2019-03-09T05:29:51.582Z,67.11
2019-03-09T05:32:21.421Z,67.03
2019-03-09T05:34:51.925Z,67.41
2019-03-09T05:37:22.254Z,67.69
2019-03-09T05:39:52.343Z,67.41
2019-03-09T05:42:24.264Z,68.22
2019-03-09T05:44:54.655Z,68.82
2019-03-09T05:47:24.729Z,68.32
2019-03-09T05:49:54.669Z,68.63
2019-03-09T05:52:27.376Z,68.96
2019-03-09T05:54:57.601Z,69.11
2019-03-09T05:57:29.402Z,69.50
2019-03-09T05:59:59.059Z,69.08
2019-03-09T06:02:29.452Z,69.27
2019-03-09T06:04:59.083Z,68.53
2019-03-09T06:07:29.168Z,68.79
2019-03-09T06:09:58.961Z,68.44
2019-03-09T06:12:30.019Z,68.04
2019-03-09T06:15:00.256Z,68.76
2019-03-09T06:17:30.825Z,68.51
2019-03-09T06:20:00.564Z,69.94
2019-03-09T06:22:30.634Z,68.32
2019-03-09T06:25:00.769Z,69.58
2019-03-09T06:27:31.330Z,69.39
2019-03-09T06:30:03.163Z,69.66
2019-03-09T06:32:35.486Z,70.21
2019-03-09T06:35:08.467Z,69.53
2019-03-09T06:37:39.227Z,69.65
2019-03-09T06:40:11.727Z,69.88
2019-03-09T06:42:44.260Z,69.97
2019-03-09T06:45:13.996Z,69.14
2019-03-09T06:47:44.458Z,69.55
2019-03-09T06:50:15.791Z,70.14
2019-03-09T06:52:47.655Z,69.69
2019-03-09T06:55:17.776Z,68.55
2019-03-09T06:57:48.059Z,69.81
2019-03-09T07:00:36.833Z,68.59
2019-03-09T07:03:06.919Z,68.56
2019-03-09T07:05:37.333Z,69.52
2019-03-09T07:08:08.830Z,69.36
2019-03-09T07:10:39.158Z,68.90
2019-03-09T07:13:09.090Z,69.41
2019-03-09T07:15:41.762Z,68.04
2019-03-09T07:18:18.015Z,69.33
2019-03-09T07:20:48.700Z,69.87
2019-03-09T07:23:19.342Z,69.55
2019-03-09T07:25:48.776Z,69.39
2019-03-09T07:28:18.332Z,69.50
2019-03-09T07:30:49.585Z,70.41
2019-03-09T07:33:20.766Z,69.76
2019-03-09T07:35:51.078Z,69.83
2019-03-09T07:38:21.223Z,70.61
2019-03-09T07:40:52.865Z,70.41
2019-03-09T07:43:23.054Z,71.48
2019-03-09T07:45:52.882Z,72.35
2019-03-09T07:48:24.456Z,72.24
2019-03-09T07:50:55.421Z,71.59
2019-03-09T07:53:25.481Z,71.82
2019-03-09T07:55:55.837Z,70.73
2019-03-09T07:58:25.559Z,71.33
2019-03-09T08:00:55.180Z,72.73
2019-03-09T08:03:27.037Z,72.78
2019-03-09T08:05:57.867Z,72.43
2019-03-09T08:08:28.300Z,71.27
2019-03-09T08:10:58.355Z,71.32
2019-03-09T08:13:28.412Z,70.20
2019-03-09T08:15:57.927Z,68.99
2019-03-09T08:18:27.338Z,69.16
2019-03-09T08:20:59.551Z,68.66
2019-03-09T08:23:30.065Z,68.49
2019-03-09T08:26:00.203Z,69.23
2019-03-09T08:28:30.223Z,68.47
2019-03-09T08:31:00.296Z,67.89
2019-03-09T08:33:30.978Z,67.97
2019-03-09T08:36:02.476Z,67.28
2019-03-09T08:38:33.237Z,69.04
2019-03-09T08:41:03.783Z,69.10
2019-03-09T08:43:33.128Z,68.28
2019-03-09T08:46:02.629Z,68.74
2019-03-09T08:48:32.892Z,68.94
2019-03-09T08:51:03.765Z,69.44
2019-03-09T08:53:34.039Z,66.48
2019-03-09T08:56:04.073Z,67.72
2019-03-09T08:58:34.264Z,68.44
2019-03-09T09:01:03.670Z,67.95
2019-03-09T09:03:33.344Z,67.52
2019-03-09T09:06:03.418Z,67.50
2019-03-09T09:08:35.444Z,67.78
2019-03-09T09:11:05.734Z,68.11
2019-03-09T09:13:35.968Z,67.55
2019-03-09T09:16:05.936Z,68.25
2019-03-09T09:18:36.136Z,67.69
2019-03-09T09:21:06.493Z,67.82
2019-03-09T09:23:38.290Z,67.49
2019-03-09T09:26:07.948Z,67.21
2019-03-09T09:28:38.359Z,67.10
2019-03-09T09:31:07.986Z,66.67
2019-03-09T09:33:37.549Z,67.30
2019-03-09T09:36:07.084Z,67.01
2019-03-09T09:38:36.585Z,67.41
2019-03-09T09:41:08.643Z,67.38
2019-03-09T09:43:40.503Z,66.71
2019-03-09T09:46:10.002Z,67.03
2019-03-09T09:48:39.514Z,66.71
2019-03-09T09:51:09.041Z,66.68
2019-03-09T09:53:38.714Z,66.98
2019-03-09T09:56:10.637Z,66.56
2019-03-09T09:58:41.195Z,66.85
2019-03-09T10:01:11.650Z,66.38
2019-03-09T10:03:41.236Z,67.48
2019-03-09T10:06:10.649Z,67.06
2019-03-09T10:08:40.249Z,66.80
2019-03-09T10:11:12.407Z,66.82
2019-03-09T10:13:42.835Z,66.63
2019-03-09T10:16:12.274Z,67.11
2019-03-09T10:18:41.782Z,67.17
2019-03-09T10:21:11.304Z,66.96
2019-03-09T10:23:41.872Z,66.72
2019-03-09T10:26:11.409Z,66.66
2019-03-09T10:28:42.156Z,66.13
2019-03-09T10:31:12.952Z,66.39
2019-03-09T10:33:43.378Z,66.38
2019-03-09T10:36:13.229Z,66.41
2019-03-09T10:38:43.652Z,66.26
2019-03-09T10:41:13.227Z,66.33
2019-03-09T10:43:45.057Z,66.02
2019-03-09T10:46:15.952Z,66.54
2019-03-09T10:48:46.571Z,66.32
2019-03-09T10:51:15.976Z,66.15
2019-03-09T10:53:45.591Z,65.46
2019-03-09T10:56:15.302Z,66.51
2019-03-09T10:58:45.732Z,65.82
2019-03-09T11:01:17.767Z,65.24
2019-03-09T11:03:48.341Z,65.30
2019-03-09T11:06:17.904Z,65.06
2019-03-09T11:08:48.568Z,65.09
2019-03-09T11:11:19.064Z,65.03
2019-03-09T11:13:52.348Z,64.75
2019-03-09T11:16:21.958Z,64.83
2019-03-09T11:18:52.606Z,64.55
2019-03-09T11:21:23.123Z,64.38
2019-03-09T11:23:52.690Z,63.96
2019-03-09T11:26:22.236Z,63.81
2019-03-09T11:28:54.324Z,63.29
2019-03-09T11:31:24.864Z,62.86
2019-03-09T11:33:54.560Z,62.57
2019-03-09T11:36:26.238Z,61.76
2019-03-09T11:38:55.748Z,61.16
2019-03-09T11:41:26.434Z,60.45
2019-03-09T11:43:57.394Z,60.98
2019-03-09T11:46:28.293Z,61.31
2019-03-09T11:48:58.712Z,61.52
2019-03-09T11:51:29.266Z,61.73
2019-03-09T11:53:58.830Z,62.49
2019-03-09T11:56:29.457Z,61.82
2019-03-09T11:59:00.457Z,61.97
2019-03-09T12:01:31.144Z,62.36
2019-03-09T12:04:01.862Z,62.39
2019-03-09T12:06:32.161Z,62.10
2019-03-09T12:09:01.888Z,62.18
2019-03-09T12:11:32.382Z,62.88
2019-03-09T12:14:03.424Z,63.25
2019-03-09T12:16:34.196Z,63.94
2019-03-09T12:19:03.764Z,64.19
2019-03-09T12:21:34.027Z,64.42
2019-03-09T12:24:03.910Z,64.32
2019-03-09T12:26:33.896Z,64.54
2019-03-09T12:29:03.778Z,64.77
2019-03-09T12:31:37.168Z,64.75
2019-03-09T12:34:07.504Z,64.78
2019-03-09T12:36:37.673Z,64.13
2019-03-09T12:39:10.210Z,64.37
2019-03-09T12:41:42.092Z,63.77
2019-03-09T12:44:13.072Z,63.82
2019-03-09T12:46:43.561Z,64.09
2019-03-09T12:49:13.518Z,63.38
2019-03-09T12:51:43.902Z,63.35
2019-03-09T12:54:13.404Z,63.54
2019-03-09T12:56:43.506Z,63.04
2019-03-09T12:59:13.865Z,62.07
2019-03-09T13:01:44.096Z,62.57
2019-03-09T13:04:14.443Z,63.54
2019-03-09T13:06:44.815Z,63.69
2019-03-09T13:09:14.701Z,64.08
2019-03-09T13:11:45.187Z,64.51
2019-03-09T13:14:16.042Z,64.31
2019-03-09T13:16:45.969Z,63.59
2019-03-09T13:19:15.550Z,63.81
2019-03-09T13:21:46.097Z,63.60
2019-03-09T13:24:19.354Z,64.03
2019-03-09T13:26:51.579Z,63.30
2019-03-09T13:29:22.021Z,63.92
2019-03-09T13:31:51.827Z,63.83
2019-03-09T13:34:22.181Z,63.72
2019-03-09T13:36:52.725Z,64.63
2019-03-09T13:39:22.286Z,64.84
2019-03-09T13:41:54.140Z,66.78
2019-03-09T13:44:25.035Z,68.39
2019-03-09T13:46:55.548Z,68.99
2019-03-09T13:49:24.988Z,68.42
2019-03-09T13:51:54.566Z,66.71
2019-03-09T13:54:24.162Z,67.71
2019-03-09T13:56:54.872Z,67.84
2019-03-09T13:59:24.882Z,67.39
2019-03-09T14:01:55.391Z,66.14
2019-03-09T14:04:25.506Z,65.65
2019-03-09T14:06:55.542Z,63.47
2019-03-09T14:09:25.781Z,61.48
2019-03-09T14:11:55.851Z,62.18
2019-03-09T14:14:26.733Z,62.22
2019-03-09T14:16:58.392Z,60.80
2019-03-09T14:19:28.938Z,61.44
2019-03-09T14:21:58.479Z,62.41
2019-03-09T14:24:29.018Z,62.24
2019-03-09T14:26:58.614Z,62.22
2019-03-09T14:29:30.520Z,62.62
2019-03-09T14:32:01.311Z,63.20
2019-03-09T14:34:31.073Z,62.55
2019-03-09T14:37:01.731Z,62.04
2019-03-09T14:39:31.942Z,62.07
2019-03-09T14:42:02.727Z,62.50
2019-03-09T14:44:34.064Z,62.11
2019-03-09T14:47:04.206Z,62.35
2019-03-09T14:49:34.153Z,62.53
2019-03-09T14:52:04.546Z,62.76
2019-03-09T14:54:35.142Z,62.59
2019-03-09T14:57:04.932Z,63.26
2019-03-09T14:59:35.731Z,63.67
2019-03-09T15:02:07.215Z,64.80
2019-03-09T15:04:37.699Z,65.09
2019-03-09T15:07:09.571Z,65.70
2019-03-09T15:09:39.613Z,66.19
2019-03-09T15:12:11.817Z,66.82
2019-03-09T15:14:43.538Z,67.45
2019-03-09T15:17:13.665Z,65.84
2019-03-09T15:19:43.450Z,65.74
2019-03-09T15:22:13.957Z,65.08
2019-03-09T15:24:43.978Z,65.27
2019-03-09T15:27:14.691Z,64.16
2019-03-09T15:29:46.128Z,62.73
2019-03-09T15:32:16.162Z,62.65
2019-03-09T15:34:46.305Z,62.65
2019-03-09T15:37:16.175Z,61.80
2019-03-09T15:39:45.755Z,62.38
2019-03-09T15:42:18.624Z,62.09
2019-03-09T15:44:49.042Z,62.43
2019-03-09T15:47:18.570Z,61.87
2019-03-09T15:49:48.381Z,61.52
2019-03-09T15:52:18.910Z,61.47
2019-03-09T15:54:49.481Z,61.76
2019-03-09T15:57:19.492Z,61.58
2019-03-09T15:59:51.011Z,61.85
2019-03-09T16:02:20.564Z,61.58
2019-03-09T16:04:51.205Z,61.36
2019-03-09T16:07:21.802Z,61.36
2019-03-09T16:09:52.029Z,60.81
2019-03-09T16:12:23.686Z,60.44
2019-03-09T16:14:55.222Z,60.71
2019-03-09T16:17:25.832Z,60.15
2019-03-09T16:19:55.553Z,60.91
2019-03-09T16:22:25.310Z,61.19
2019-03-09T16:24:55.774Z,60.63
2019-03-09T16:27:27.707Z,60.96
2019-03-09T16:29:58.784Z,61.02
2019-03-09T16:32:28.837Z,60.64
2019-03-09T16:34:59.232Z,59.86
2019-03-09T16:37:29.233Z,59.69
2019-03-09T16:39:58.808Z,59.68
2019-03-09T16:42:30.610Z,60.29
2019-03-09T16:45:00.993Z,60.36
2019-03-09T16:47:31.163Z,60.46
2019-03-09T16:50:01.192Z,60.56
2019-03-09T16:52:30.789Z,59.68
2019-03-09T16:55:01.394Z,59.54
2019-03-09T16:57:30.950Z,59.81
2019-03-09T17:00:02.969Z,59.84
2019-03-09T17:02:32.723Z,60.30
2019-03-09T17:05:03.198Z,60.46
2019-03-09T17:07:33.758Z,60.29
2019-03-09T17:10:03.386Z,60.29
2019-03-09T17:12:34.080Z,60.54
2019-03-09T17:15:05.963Z,60.40
2019-03-09T17:17:36.308Z,59.61
2019-03-09T17:20:07.533Z,59.50
2019-03-09T17:22:38.222Z,59.33
2019-03-09T17:25:09.221Z,59.19
2019-03-09T17:27:40.972Z,59.18
2019-03-09T17:30:16.117Z,58.19
2019-03-09T17:32:46.157Z,58.91
2019-03-09T17:35:16.318Z,59.52
2019-03-09T17:37:48.173Z,59.95
2019-03-09T17:40:18.447Z,59.18
2019-03-09T17:42:48.549Z,58.76
2019-03-09T17:45:25.629Z,58.41
2019-03-09T17:47:57.184Z,58.21
2019-03-09T17:50:28.169Z,58.41
2019-03-09T17:52:57.841Z,58.52
2019-03-09T17:55:28.055Z,58.23
2019-03-09T17:57:57.799Z,58.82
2019-03-09T18:00:42.151Z,59.48
2019-03-09T18:03:05.555Z,60.02
2019-03-09T18:05:35.918Z,60.62
2019-03-09T18:08:11.284Z,61.06
2019-03-09T18:10:47.485Z,60.92
2019-03-09T18:13:18.043Z,60.98
2019-03-09T18:15:48.659Z,60.63
2019-03-09T18:18:18.573Z,60.45
2019-03-09T18:20:48.381Z,60.15
2019-03-09T18:23:18.930Z,59.52
2019-03-09T18:25:49.410Z,58.83
2019-03-09T18:28:19.963Z,58.81
2019-03-09T18:30:50.092Z,58.53
2019-03-09T18:33:20.015Z,58.43
2019-03-09T18:35:49.427Z,58.22
2019-03-09T18:38:21.768Z,57.48
2019-03-09T18:40:52.208Z,57.81
2019-03-09T18:43:21.936Z,57.62
2019-03-09T18:45:52.544Z,57.46
2019-03-09T18:48:22.150Z,57.91
2019-03-09T18:50:52.796Z,57.55
2019-03-09T18:53:24.614Z,57.74
2019-03-09T18:55:59.229Z,57.65
2019-03-09T18:58:26.420Z,57.83
2019-03-09T19:00:56.559Z,57.85
2019-03-09T19:03:26.506Z,58.04
2019-03-09T19:05:57.368Z,58.61
2019-03-09T19:08:28.043Z,58.75
2019-03-09T19:11:03.208Z,59.00
2019-03-09T19:13:32.871Z,59.12
2019-03-09T19:16:03.424Z,59.54
2019-03-09T19:18:33.539Z,59.69
2019-03-09T19:21:05.395Z,59.44
2019-03-09T19:23:35.798Z,59.70
2019-03-09T19:26:06.258Z,59.81
2019-03-09T19:28:36.357Z,60.07
2019-03-09T19:31:05.907Z,60.29
2019-03-09T19:33:36.080Z,60.81
2019-03-09T19:36:08.040Z,61.03
2019-03-09T19:38:37.644Z,60.68
2019-03-09T19:41:07.062Z,61.19
2019-03-09T19:43:37.820Z,60.92
2019-03-09T19:46:08.386Z,61.16
2019-03-09T19:48:38.120Z,61.57
2019-03-09T19:51:10.372Z,61.28
2019-03-09T19:53:42.737Z,61.21
2019-03-09T19:56:12.757Z,61.05
2019-03-09T19:58:43.054Z,61.04
2019-03-09T20:01:12.922Z,60.63
2019-03-09T20:03:45.193Z,60.59
2019-03-09T20:06:15.620Z,60.47
2019-03-09T20:08:45.824Z,60.53
2019-03-09T20:11:15.936Z,60.81
2019-03-09T20:13:45.850Z,60.85
2019-03-09T20:16:16.438Z,60.16
2019-03-09T20:18:47.001Z,60.10
2019-03-09T20:21:18.905Z,59.98
2019-03-09T20:23:48.670Z,60.53
2019-03-09T20:26:18.530Z,60.24
2019-03-09T20:28:49.230Z,60.08
2019-03-09T20:31:19.582Z,60.17
2019-03-09T20:33:53.130Z,60.23
2019-03-09T20:36:22.895Z,60.50
2019-03-09T20:38:52.800Z,60.37
2019-03-09T20:41:22.848Z,60.35
2019-03-09T20:43:53.548Z,61.24
2019-03-09T20:46:23.792Z,61.17
2019-03-09T20:48:55.664Z,61.49
2019-03-09T20:51:26.233Z,61.79
2019-03-09T20:53:56.687Z,61.75
2019-03-09T20:56:26.497Z,62.35
2019-03-09T20:58:56.239Z,62.01
2019-03-09T21:01:26.783Z,62.28
2019-03-09T21:04:00.887Z,62.08
2019-03-09T21:06:30.460Z,62.22
2019-03-09T21:09:00.286Z,62.29
2019-03-09T21:11:30.959Z,62.08
2019-03-09T21:14:00.763Z,61.83
2019-03-09T21:16:31.208Z,61.88
2019-03-09T21:19:02.645Z,61.81
2019-03-09T21:21:33.144Z,61.75
2019-03-09T21:24:09.288Z,61.69
2019-03-09T21:26:39.672Z,62.28
2019-03-09T21:29:11.985Z,62.29
2019-03-09T21:31:42.598Z,61.21
2019-03-09T21:34:12.934Z,60.51
2019-03-09T21:36:43.328Z,60.56
2019-03-09T21:39:13.480Z,60.86
2019-03-09T21:41:44.030Z,61.14
2019-03-09T21:44:14.774Z,61.60
2019-03-09T21:46:45.638Z,61.74
2019-03-09T21:49:15.256Z,61.88
2019-03-09T21:51:45.916Z,62.23
2019-03-09T21:54:16.238Z,62.08
2019-03-09T21:56:46.130Z,62.09
2019-03-09T21:59:18.074Z,62.36
2019-03-09T22:01:48.256Z,62.40
2019-03-09T22:04:17.952Z,62.48
2019-03-09T22:06:48.389Z,62.75
2019-03-09T22:09:19.065Z,62.76
2019-03-09T22:11:51.129Z,62.82
2019-03-09T22:14:21.707Z,63.18
2019-03-09T22:16:56.468Z,63.01
2019-03-09T22:19:24.177Z,63.53
2019-03-09T22:22:00.629Z,63.38
2019-03-09T22:24:30.914Z,63.23
2019-03-09T22:27:00.840Z,62.99
2019-03-09T22:29:31.708Z,63.05
2019-03-09T22:32:01.804Z,63.10
2019-03-09T22:34:31.856Z,63.39
2019-03-09T22:37:01.778Z,63.10
2019-03-09T22:39:33.562Z,63.01
2019-03-09T22:42:04.374Z,62.57
2019-03-09T22:44:34.876Z,63.50
2019-03-09T22:47:11.709Z,63.51
2019-03-09T22:49:38.362Z,63.20
2019-03-09T22:52:09.835Z,63.48
2019-03-09T22:54:40.473Z,63.61
2019-03-09T22:57:10.716Z,63.70
2019-03-09T22:59:40.673Z,63.66
2019-03-09T23:02:12.779Z,63.50
2019-03-09T23:04:42.894Z,62.89
2019-03-09T23:07:15.124Z,63.21
2019-03-09T23:09:45.601Z,63.32
2019-03-09T23:12:15.385Z,63.58
2019-03-09T23:14:45.632Z,63.13
2019-03-09T23:17:15.934Z,63.05
2019-03-09T23:19:48.524Z,62.92
2019-03-09T23:22:19.351Z,62.69
2019-03-09T23:24:50.009Z,62.73
2019-03-09T23:27:20.133Z,62.51
2019-03-09T23:29:50.956Z,62.67
2019-03-09T23:32:20.892Z,63.04
2019-03-09T23:34:52.623Z,63.36
2019-03-09T23:37:22.949Z,63.11
2019-03-09T23:39:53.117Z,63.53
2019-03-09T23:42:23.588Z,63.30
2019-03-09T23:44:53.594Z,63.22
2019-03-09T23:47:24.443Z,64.22
2019-03-09T23:49:55.090Z,64.45
2019-03-09T23:52:25.114Z,64.55
2019-03-09T23:54:55.015Z,64.68
2019-03-09T23:57:25.064Z,64.65
2019-03-09T23:59:54.963Z,64.49
